createdAt,value
2022-09-10T00:03:19.728Z,66843.75
2022-09-10T00:08:24.967Z,66831.03
2022-09-10T00:13:28.946Z,66827.13
2022-09-10T00:18:33.443Z,66873.38
2022-09-10T00:23:39.122Z,66852.97
2022-09-10T00:28:43.461Z,66820.06
2022-09-10T00:33:47.634Z,66801.88
2022-09-10T00:38:55.008Z,66809.34
2022-09-10T00:44:00.285Z,66796.50
2022-09-10T00:49:12.267Z,66824.91
2022-09-10T00:54:20.741Z,66867.50
2022-09-10T00:59:27.716Z,66840.53
2022-09-10T01:04:33.632Z,66831.44
2022-09-10T01:09:40.621Z,66859.44
2022-09-10T01:15:05.744Z,66898.31
2022-09-10T01:20:35.559Z,66840.53
2022-09-10T01:25:52.688Z,66851.44
2022-09-10T01:31:05.232Z,66850.75
2022-09-10T01:36:15.174Z,66798.03
2022-09-10T01:41:25.333Z,66836.81
2022-09-10T01:46:41.785Z,66804.50
2022-09-10T01:52:03.207Z,66722.16
2022-09-10T01:57:20.163Z,66746.22
2022-09-10T02:02:31.876Z,66773.81
2022-09-10T02:07:39.611Z,66747.97
2022-09-10T02:12:44.707Z,66724.84
2022-09-10T02:18:08.535Z,66761.97
2022-09-10T02:23:18.494Z,66794.78
2022-09-10T02:28:22.330Z,66780.97
2022-09-10T02:33:28.197Z,66793.81
2022-09-10T02:38:33.876Z,66766.34
2022-09-10T02:43:38.401Z,66759.44
2022-09-10T02:48:45.914Z,66677.47
2022-09-10T02:53:50.631Z,66678.00
2022-09-10T02:58:54.725Z,66711.38
2022-09-10T03:04:03.519Z,66674.63
2022-09-10T03:09:08.664Z,66675.81
2022-09-10T03:14:20.225Z,66737.16
2022-09-10T03:19:25.519Z,66765.81
2022-09-10T03:24:29.555Z,66734.06
2022-09-10T03:29:33.671Z,66695.72
2022-09-10T03:34:40.063Z,66696.78
2022-09-10T03:39:44.111Z,66643.22
2022-09-10T03:44:48.018Z,66681.78
2022-09-10T03:49:53.767Z,66728.00
2022-09-10T03:54:58.830Z,66727.00
2022-09-10T04:00:04.924Z,66751.28
2022-09-10T04:05:20.553Z,66734.69
2022-09-10T04:10:26.166Z,66755.44
2022-09-10T04:15:30.223Z,66772.19
2022-09-10T04:20:36.727Z,66753.81
2022-09-10T04:25:45.361Z,66758.13
2022-09-10T04:30:51.295Z,66657.56
2022-09-10T04:36:00.594Z,66647.81
2022-09-10T04:41:05.124Z,66671.56
2022-09-10T04:46:10.227Z,66723.78
2022-09-10T04:51:18.481Z,66729.16
2022-09-10T04:56:29.758Z,66782.97
2022-09-10T05:01:34.943Z,66784.03
2022-09-10T05:06:40.361Z,66823.59
2022-09-10T05:11:47.428Z,66703.88
2022-09-10T05:16:51.435Z,66664.03
2022-09-10T05:21:57.263Z,66654.28
2022-09-10T05:27:01.829Z,66664.56
2022-09-10T05:32:06.176Z,66647.53
2022-09-10T05:37:12.187Z,66681.16
2022-09-10T05:42:17.290Z,66654.72
2022-09-10T05:47:21.852Z,66702.31
2022-09-10T05:52:27.663Z,66724.22
2022-09-10T05:57:36.761Z,66661.44
2022-09-10T06:02:41.781Z,66644.13
2022-09-10T06:08:00.178Z,66721.16
2022-09-10T06:13:04.031Z,66746.38
2022-09-10T06:18:07.997Z,66745.84
2022-09-10T06:23:13.577Z,66764.75
2022-09-10T06:28:17.719Z,66773.81
2022-09-10T06:33:24.006Z,66807.09
2022-09-10T06:38:33.678Z,66805.03
2022-09-10T06:43:38.448Z,66810.50
2022-09-10T06:49:00.913Z,66785.03
2022-09-10T06:54:11.553Z,66819.06
2022-09-10T06:59:17.150Z,66834.13
2022-09-10T07:04:23.784Z,66838.03
2022-09-10T07:09:28.937Z,66882.66
2022-09-10T07:14:35.035Z,66890.22
2022-09-10T07:19:42.697Z,66836.38
2022-09-10T07:24:56.153Z,66870.22
2022-09-10T07:30:24.370Z,66829.19
2022-09-10T07:35:31.340Z,66831.44
2022-09-10T07:40:37.641Z,66780.28
2022-09-10T07:45:43.052Z,66805.50
2022-09-10T07:50:47.727Z,66757.75
2022-09-10T07:56:02.230Z,66755.44
2022-09-10T08:01:12.719Z,66782.50
2022-09-10T08:06:18.482Z,66780.97
2022-09-10T08:11:26.410Z,66805.56
2022-09-10T08:16:33.199Z,66781.94
2022-09-10T08:21:44.639Z,66834.59
2022-09-10T08:26:52.841Z,66854.06
2022-09-10T08:31:56.863Z,66834.19
2022-09-10T08:37:05.264Z,66801.81
2022-09-10T08:42:19.863Z,66784.97
2022-09-10T08:47:33.445Z,66797.50
2022-09-10T08:52:48.952Z,66799.13
2022-09-10T08:58:11.600Z,66800.78
2022-09-10T09:03:32.270Z,66799.03
2022-09-10T09:08:48.636Z,66749.06
2022-09-10T09:14:21.823Z,66777.53
2022-09-10T09:19:36.415Z,66767.44
2022-09-10T09:24:49.598Z,66814.19
2022-09-10T09:30:02.171Z,66827.13
2022-09-10T09:35:23.942Z,66824.53
2022-09-10T09:40:37.373Z,66804.03
2022-09-10T09:45:47.896Z,66818.13
2022-09-10T09:51:00.759Z,66827.75
2022-09-10T09:56:09.715Z,66753.28
2022-09-10T10:01:21.421Z,66688.25
2022-09-10T10:06:35.957Z,66700.19
2022-09-10T10:11:45.678Z,66775.44
2022-09-10T10:17:00.440Z,66749.28
2022-09-10T10:22:22.328Z,66726.53
2022-09-10T10:27:33.046Z,66695.78
2022-09-10T10:32:48.828Z,66735.06
2022-09-10T10:38:14.458Z,66688.41
2022-09-10T10:43:31.441Z,66652.22
2022-09-10T10:48:49.456Z,66636.13
2022-09-10T10:54:08.122Z,66649.97
2022-09-10T10:59:31.371Z,66603.34
2022-09-10T11:04:45.277Z,66587.78
2022-09-10T11:09:56.180Z,66595.91
2022-09-10T11:15:04.418Z,66610.34
2022-09-10T11:20:28.552Z,66601.13
2022-09-10T11:25:40.263Z,66612.50
2022-09-10T11:30:50.680Z,66643.59
2022-09-10T11:36:01.677Z,66695.78
2022-09-10T11:41:15.587Z,66656.44
2022-09-10T11:46:25.531Z,66785.66
2022-09-10T11:51:33.779Z,66825.06
2022-09-10T11:56:51.235Z,66743.75
2022-09-10T12:02:16.508Z,66725.94
2022-09-10T12:07:36.460Z,66686.25
2022-09-10T12:12:43.512Z,66698.09
2022-09-10T12:17:51.943Z,66822.81
2022-09-10T12:22:58.086Z,66816.44
2022-09-10T12:28:03.459Z,66809.50
2022-09-10T12:33:54.312Z,66773.81
2022-09-10T12:39:23.093Z,66854.66
2022-09-10T12:44:44.811Z,66836.91
2022-09-10T12:55:06.218Z,66908.44
2022-09-10T13:00:22.114Z,66975.38
2022-09-10T13:05:28.985Z,66901.00
2022-09-10T13:10:34.885Z,66921.41
2022-09-10T13:15:40.132Z,66852.97
2022-09-10T13:20:44.089Z,66862.19
2022-09-10T13:25:51.432Z,66909.00
2022-09-10T13:31:02.839Z,66749.59
2022-09-10T13:36:19.778Z,66785.75
2022-09-10T13:42:00.333Z,66774.34
2022-09-10T13:47:10.937Z,66764.03
2022-09-10T13:52:18.747Z,66821.91
2022-09-10T13:57:29.603Z,66844.97
2022-09-10T14:02:41.891Z,66775.44
2022-09-10T14:07:46.060Z,66787.88
2022-09-10T14:12:52.790Z,66920.94
2022-09-10T14:18:00.079Z,66921.41
2022-09-10T14:23:05.969Z,66866.97
2022-09-10T14:28:25.008Z,66870.81
2022-09-10T14:33:33.044Z,66870.28
2022-09-10T14:38:40.145Z,66897.84
2022-09-10T14:43:45.753Z,66932.72
2022-09-10T14:49:09.149Z,66796.63
2022-09-10T14:54:14.985Z,66929.47
2022-09-10T14:59:29.377Z,66858.97
2022-09-10T15:04:33.677Z,66869.16
2022-09-10T15:09:37.714Z,66812.03
2022-09-10T15:14:43.014Z,66907.91
2022-09-10T15:19:48.383Z,66934.41
2022-09-10T15:25:09.179Z,66996.25
2022-09-10T15:30:17.418Z,66881.06
2022-09-10T15:35:21.811Z,66755.81
2022-09-10T15:40:26.122Z,66742.06
2022-09-10T15:45:34.848Z,66682.41
2022-09-10T15:50:39.222Z,66781.41
2022-09-10T15:55:43.163Z,66696.41
2022-09-10T16:00:48.525Z,66774.34
2022-09-10T16:05:53.146Z,66780.81
2022-09-10T16:10:57.336Z,66810.50
2022-09-10T16:16:05.172Z,66719.94
2022-09-10T16:21:11.612Z,66775.03
2022-09-10T16:26:18.311Z,66732.38
2022-09-10T16:31:25.268Z,66727.00
2022-09-10T16:36:31.335Z,66770.03
2022-09-10T16:41:35.243Z,66863.28
2022-09-10T16:46:40.776Z,66746.50
2022-09-10T16:51:46.209Z,66716.25
2022-09-10T16:56:50.552Z,66697.03
2022-09-10T17:01:59.586Z,66781.34
2022-09-10T17:07:04.002Z,66820.81
2022-09-10T17:12:10.581Z,66733.00
2022-09-10T17:17:16.172Z,66756.19
2022-09-10T17:22:20.125Z,66764.28
2022-09-10T17:27:25.652Z,66778.13
2022-09-10T17:32:34.547Z,66698.56
2022-09-10T17:37:38.771Z,66709.78
2022-09-10T17:42:42.565Z,66779.28
2022-09-10T17:47:48.451Z,66889.22
2022-09-10T17:52:52.795Z,66807.34
2022-09-10T17:57:56.565Z,66741.53
2022-09-10T18:03:01.919Z,66784.03
2022-09-10T18:08:07.053Z,66715.78
2022-09-10T18:13:11.028Z,66680.09
2022-09-10T18:18:16.319Z,66700.03
2022-09-10T18:23:20.508Z,66699.66
2022-09-10T18:28:24.586Z,66758.28
2022-09-10T18:33:29.904Z,66883.75
2022-09-10T18:38:33.741Z,66881.59
2022-09-10T18:43:38.541Z,66811.59
2022-09-10T18:48:44.784Z,66834.34
2022-09-10T18:53:50.022Z,66875.59
2022-09-10T18:58:56.653Z,66868.66
2022-09-10T19:04:03.190Z,66856.81
2022-09-10T19:09:10.924Z,66816.38
2022-09-10T19:14:18.164Z,66864.88
2022-09-10T19:19:26.110Z,66880.53
2022-09-10T19:24:54.071Z,66751.91
2022-09-10T19:29:55.954Z,66744.38
2022-09-10T19:35:01.388Z,66786.13
2022-09-10T19:40:05.739Z,66775.44
2022-09-10T19:45:11.174Z,66778.19
2022-09-10T19:50:20.271Z,66739.00
2022-09-10T19:55:27.064Z,66662.50
2022-09-10T20:00:46.509Z,66666.78
2022-09-10T20:05:53.163Z,66712.00
2022-09-10T20:10:57.658Z,66814.28
2022-09-10T20:16:02.734Z,66780.81
2022-09-10T20:21:14.249Z,66836.81
2022-09-10T20:26:19.827Z,66881.06
2022-09-10T20:31:25.604Z,66881.00
2022-09-10T20:36:31.397Z,66851.44
2022-09-10T20:41:35.375Z,66850.91
2022-09-10T20:46:41.858Z,66901.13
2022-09-10T20:51:47.391Z,66821.28
2022-09-10T20:56:51.337Z,66795.97
2022-09-10T21:01:56.693Z,66756.75
2022-09-10T21:07:02.099Z,66633.00
2022-09-10T21:12:06.973Z,66620.03
2022-09-10T21:17:10.729Z,66686.16
2022-09-10T21:22:15.790Z,66679.19
2022-09-10T21:27:19.553Z,66699.66
2022-09-10T21:32:23.668Z,66715.22
2022-09-10T21:37:28.801Z,66612.34
2022-09-10T21:42:32.914Z,66634.00
2022-09-10T21:47:36.585Z,66675.41
2022-09-10T21:52:41.920Z,66646.22
2022-09-10T21:57:45.729Z,66595.91
2022-09-10T22:02:51.087Z,66661.66
2022-09-10T22:07:56.163Z,66719.09
2022-09-10T22:13:00.169Z,66780.97
2022-09-10T22:18:04.105Z,66724.91
2022-09-10T22:23:09.435Z,66720.06
2022-09-10T22:28:14.650Z,66712.00
2022-09-10T22:33:18.531Z,66755.53
2022-09-10T22:38:24.140Z,66749.75
2022-09-10T22:43:28.123Z,66793.41
2022-09-10T22:48:32.076Z,66675.03
2022-09-10T22:53:42.549Z,66636.78
2022-09-10T22:58:47.937Z,66609.28
2022-09-10T23:03:53.014Z,66701.69
2022-09-10T23:09:03.275Z,66666.72
2022-09-10T23:14:09.416Z,66665.81
2022-09-10T23:19:15.899Z,66694.72
2022-09-10T23:24:24.383Z,66633.53
2022-09-10T23:29:28.357Z,66500.63
2022-09-10T23:34:32.414Z,66493.78
2022-09-10T23:39:38.144Z,66548.97
2022-09-10T23:44:42.071Z,66685.00
2022-09-10T23:49:45.923Z,66614.03
2022-09-10T23:54:51.510Z,66604.50
2022-09-10T23:59:56.104Z,66599.06
